createdAt,value
2023-04-03T00:01:49.798Z,4.47
2023-04-03T00:04:17.572Z,5.10
2023-04-03T00:06:44.990Z,4.88
2023-04-03T00:09:12.471Z,4.90
2023-04-03T00:11:39.874Z,5.13
2023-04-03T00:14:07.343Z,4.90
2023-04-03T00:16:34.826Z,4.82
2023-04-03T00:19:02.280Z,5.32
2023-04-03T00:21:29.710Z,4.75
2023-04-03T00:23:57.089Z,4.82
2023-04-03T00:26:24.696Z,5.07
2023-04-03T00:28:52.103Z,4.43
2023-04-03T00:31:19.706Z,4.55
2023-04-03T00:33:47.392Z,4.90
2023-04-03T00:36:15.595Z,4.22
2023-04-03T00:38:43.102Z,4.05
2023-04-03T00:41:10.664Z,4.30
2023-04-03T00:43:38.130Z,4.47
2023-04-03T00:46:05.841Z,4.30
2023-04-03T00:48:36.603Z,4.68
2023-04-03T00:51:05.843Z,4.65
2023-04-03T00:53:37.598Z,4.28
2023-04-03T00:56:07.383Z,4.35
2023-04-03T00:58:38.645Z,4.82
2023-04-03T01:01:08.667Z,4.65
2023-04-03T01:03:36.166Z,4.50
2023-04-03T01:06:05.691Z,4.60
2023-04-03T01:08:33.506Z,4.75
2023-04-03T01:11:00.996Z,4.60
2023-04-03T01:13:31.557Z,4.50
2023-04-03T01:16:02.413Z,4.43
2023-04-03T01:18:30.062Z,4.75
2023-04-03T01:20:57.580Z,4.07
2023-04-03T01:23:30.371Z,3.97
2023-04-03T01:25:59.076Z,4.35
2023-04-03T01:28:31.359Z,4.30
2023-04-03T01:31:03.290Z,4.68
2023-04-03T01:33:33.703Z,4.00
2023-04-03T01:36:02.264Z,3.90
2023-04-03T01:38:30.806Z,3.97
2023-04-03T01:40:58.370Z,4.00
2023-04-03T01:43:26.209Z,3.90
2023-04-03T01:45:55.774Z,4.30
2023-04-03T01:48:23.449Z,3.92
2023-04-03T01:50:50.981Z,4.05
2023-04-03T01:53:19.593Z,4.45
2023-04-03T01:55:47.062Z,4.20
2023-04-03T01:58:14.442Z,4.20
2023-04-03T02:00:41.876Z,4.75
2023-04-03T02:03:09.365Z,4.47
2023-04-03T02:05:36.927Z,4.70
2023-04-03T02:08:04.433Z,5.03
2023-04-03T02:10:31.855Z,4.90
2023-04-03T02:12:59.354Z,5.55
2023-04-03T02:15:27.193Z,4.68
2023-04-03T02:17:54.773Z,4.68
2023-04-03T02:20:22.669Z,4.80
2023-04-03T02:22:50.741Z,4.70
2023-04-03T02:25:19.336Z,4.30
2023-04-03T02:27:46.823Z,4.88
2023-04-03T02:30:15.675Z,4.60
2023-04-03T02:32:43.861Z,4.70
2023-04-03T02:35:11.867Z,4.43
2023-04-03T02:37:40.762Z,4.10
2023-04-03T02:40:09.025Z,4.20
2023-04-03T02:42:37.178Z,4.45
2023-04-03T02:45:04.882Z,4.22
2023-04-03T02:47:32.518Z,4.43
2023-04-03T02:50:00.290Z,4.32
2023-04-03T02:52:27.801Z,4.32
2023-04-03T02:54:59.023Z,5.15
2023-04-03T02:57:26.558Z,4.35
2023-04-03T02:59:54.029Z,4.95
2023-04-03T03:02:21.897Z,4.70
2023-04-03T03:04:49.362Z,4.90
2023-04-03T03:07:16.932Z,4.88
2023-04-03T03:09:44.690Z,5.00
2023-04-03T03:12:12.210Z,4.45
2023-04-03T03:14:39.666Z,5.28
2023-04-03T03:17:07.185Z,5.10
2023-04-03T03:19:34.868Z,5.03
2023-04-03T03:22:02.593Z,6.75
2023-04-03T03:24:30.519Z,6.47
2023-04-03T03:26:57.910Z,6.22
2023-04-03T03:29:25.530Z,6.53
2023-04-03T03:31:53.256Z,6.15
2023-04-03T03:34:21.358Z,7.10
2023-04-03T03:36:48.818Z,7.07
2023-04-03T03:39:16.345Z,6.05
2023-04-03T03:41:43.934Z,5.70
2023-04-03T03:44:11.617Z,5.80
2023-04-03T03:46:39.148Z,6.22
2023-04-03T03:49:06.782Z,5.55
2023-04-03T03:51:34.371Z,6.18
2023-04-03T03:54:01.840Z,6.15
2023-04-03T03:56:29.461Z,5.97
2023-04-03T03:58:57.264Z,6.75
2023-04-03T04:01:25.620Z,6.63
2023-04-03T04:03:55.142Z,6.35
2023-04-03T04:06:27.264Z,6.07
2023-04-03T04:08:58.703Z,6.78
2023-04-03T04:11:26.364Z,6.40
2023-04-03T04:13:55.170Z,6.40
2023-04-03T04:16:26.510Z,6.30
2023-04-03T04:18:55.121Z,6.32
2023-04-03T04:21:23.245Z,7.32
2023-04-03T04:23:52.924Z,6.35
2023-04-03T04:26:21.452Z,6.72
2023-04-03T04:28:49.111Z,7.38
2023-04-03T04:31:18.637Z,8.27
2023-04-03T04:33:46.908Z,7.60
2023-04-03T04:36:16.356Z,8.15
2023-04-03T04:38:46.593Z,9.18
2023-04-03T04:41:17.020Z,8.93
2023-04-03T04:43:45.701Z,8.95
2023-04-03T04:46:13.254Z,8.70
2023-04-03T04:48:46.230Z,8.20
2023-04-03T04:51:14.658Z,8.52
2023-04-03T04:53:43.529Z,7.80
2023-04-03T04:56:14.155Z,8.90
2023-04-03T04:58:42.794Z,8.07
2023-04-03T05:01:11.636Z,6.60
2023-04-03T05:04:08.101Z,6.82
2023-04-03T05:06:36.130Z,8.20
2023-04-03T05:09:07.655Z,13.43
2023-04-03T05:11:35.886Z,9.00
2023-04-03T05:14:07.524Z,6.80
2023-04-03T05:16:36.919Z,6.07
2023-04-03T05:19:04.566Z,6.30
2023-04-03T05:21:33.614Z,6.07
2023-04-03T05:24:05.688Z,5.00
2023-04-03T05:26:35.709Z,5.53
2023-04-03T05:29:03.624Z,4.97
2023-04-03T05:31:31.738Z,4.80
2023-04-03T05:33:59.953Z,4.60
2023-04-03T05:36:29.744Z,4.55
2023-04-03T05:39:02.430Z,5.13
2023-04-03T05:41:30.047Z,5.15
2023-04-03T05:43:57.467Z,4.68
2023-04-03T05:46:27.047Z,4.40
2023-04-03T05:48:57.383Z,3.70
2023-04-03T05:51:33.841Z,3.95
2023-04-03T05:54:11.639Z,3.55
2023-04-03T05:56:39.380Z,3.88
2023-04-03T05:59:08.320Z,3.83
2023-04-03T06:01:36.840Z,4.20
2023-04-03T06:04:04.510Z,5.07
2023-04-03T06:06:58.663Z,4.70
2023-04-03T06:09:29.958Z,4.95
2023-04-03T06:11:59.608Z,6.70
2023-04-03T06:14:28.738Z,6.20
2023-04-03T06:16:56.629Z,7.97
2023-04-03T06:19:24.421Z,9.18
2023-04-03T06:21:56.333Z,8.30
2023-04-03T06:24:26.227Z,8.35
2023-04-03T06:26:54.290Z,9.35
2023-04-03T06:29:22.608Z,7.82
2023-04-03T06:31:50.616Z,6.85
2023-04-03T06:34:18.998Z,7.30
2023-04-03T06:36:46.498Z,6.60
2023-04-03T06:39:16.543Z,6.30
2023-04-03T06:41:44.537Z,6.25
2023-04-03T06:44:13.851Z,7.50
2023-04-03T06:46:41.421Z,9.43
2023-04-03T06:49:08.954Z,10.40
2023-04-03T06:51:36.679Z,12.20
2023-04-03T06:54:04.728Z,12.07
2023-04-03T06:56:32.337Z,12.13
2023-04-03T06:58:59.738Z,12.15
2023-04-03T07:01:29.021Z,12.43
2023-04-03T07:03:56.843Z,13.25
2023-04-03T07:06:24.351Z,13.77
2023-04-03T07:08:52.276Z,15.07
2023-04-03T07:11:19.789Z,14.30
2023-04-03T07:13:47.193Z,14.90
2023-04-03T07:16:14.696Z,14.27
2023-04-03T07:18:42.488Z,13.95
2023-04-03T07:21:10.432Z,14.57
2023-04-03T07:23:38.216Z,14.35
2023-04-03T07:26:05.777Z,14.10
2023-04-03T07:28:33.380Z,13.02
2023-04-03T07:31:03.062Z,12.60
2023-04-03T07:33:30.665Z,12.20
2023-04-03T07:35:58.189Z,12.32
2023-04-03T07:38:26.691Z,12.70
2023-04-03T07:40:54.196Z,11.52
2023-04-03T07:43:22.442Z,11.20
2023-04-03T07:45:51.828Z,12.23
2023-04-03T07:48:28.518Z,11.95
2023-04-03T07:50:56.035Z,11.90
2023-04-03T07:53:23.419Z,11.35
2023-04-03T07:55:52.648Z,11.95
2023-04-03T07:58:20.394Z,11.35
2023-04-03T08:00:48.145Z,11.45
2023-04-03T08:03:17.765Z,12.82
2023-04-03T08:05:46.185Z,13.25
2023-04-03T08:08:14.581Z,12.68
2023-04-03T08:10:42.188Z,12.88
2023-04-03T08:13:10.395Z,13.32
2023-04-03T08:15:38.219Z,12.23
2023-04-03T08:18:06.029Z,13.00
2023-04-03T08:20:33.470Z,11.82
2023-04-03T08:23:00.895Z,11.95
2023-04-03T08:25:30.520Z,12.45
2023-04-03T08:27:58.115Z,11.95
2023-04-03T08:30:25.576Z,12.10
2023-04-03T08:32:53.049Z,12.43
2023-04-03T08:35:21.535Z,12.68
2023-04-03T08:37:48.975Z,12.65
2023-04-03T08:40:18.708Z,12.95
2023-04-03T08:42:49.119Z,12.73
2023-04-03T08:45:18.593Z,12.60
2023-04-03T08:47:49.208Z,11.98
2023-04-03T08:50:22.392Z,12.35
2023-04-03T08:52:51.905Z,12.15
2023-04-03T08:55:31.671Z,14.93
2023-04-03T08:58:22.613Z,10.85
2023-04-03T09:00:53.251Z,13.95
2023-04-03T09:03:22.082Z,12.20
2023-04-03T09:05:49.903Z,11.35
2023-04-03T09:08:46.961Z,11.77
2023-04-03T09:11:30.569Z,11.50
2023-04-03T09:14:15.339Z,11.85
2023-04-03T09:16:55.041Z,11.07
2023-04-03T09:19:34.640Z,10.35
2023-04-03T09:22:05.248Z,10.68
2023-04-03T09:24:33.282Z,9.90
2023-04-03T09:27:03.578Z,10.60
2023-04-03T09:29:31.433Z,9.75
2023-04-03T09:32:01.516Z,9.07
2023-04-03T09:34:31.787Z,8.88
2023-04-03T09:37:09.709Z,9.15
2023-04-03T09:39:54.620Z,8.65
2023-04-03T09:42:23.696Z,8.75
2023-04-03T09:45:01.390Z,9.98
2023-04-03T09:47:31.159Z,9.63
2023-04-03T09:50:11.221Z,8.15
2023-04-03T09:52:39.449Z,7.53
2023-04-03T09:55:27.792Z,7.03
2023-04-03T09:57:55.993Z,6.97
2023-04-03T10:00:25.072Z,7.50
2023-04-03T10:02:53.767Z,6.95
2023-04-03T10:05:30.634Z,7.18
2023-04-03T10:08:11.805Z,7.32
2023-04-03T10:10:40.401Z,6.90
2023-04-03T10:13:25.537Z,7.32
2023-04-03T10:15:57.235Z,7.80
2023-04-03T10:18:39.966Z,7.55
2023-04-03T10:21:17.501Z,7.45
2023-04-03T10:23:56.835Z,7.07
2023-04-03T10:26:30.754Z,8.13
2023-04-03T10:29:16.710Z,7.93
2023-04-03T10:31:50.302Z,7.60
2023-04-03T10:34:30.417Z,7.60
2023-04-03T10:36:57.791Z,7.93
2023-04-03T10:39:27.595Z,7.60
2023-04-03T10:42:16.062Z,8.50
2023-04-03T10:45:03.181Z,9.63
2023-04-03T10:47:42.814Z,6.85
2023-04-03T10:50:24.792Z,7.25
2023-04-03T10:52:58.117Z,7.38
2023-04-03T10:55:31.864Z,6.65
2023-04-03T10:58:00.562Z,6.53
2023-04-03T11:00:57.571Z,7.03
2023-04-03T11:03:32.276Z,7.00
2023-04-03T11:08:31.172Z,7.60
2023-04-03T11:11:01.553Z,6.22
2023-04-03T11:13:35.005Z,6.40
2023-04-03T11:16:04.313Z,6.40
2023-04-03T11:18:50.419Z,6.80
2023-04-03T11:21:28.517Z,7.35
2023-04-03T11:23:59.269Z,6.50
2023-04-03T11:26:29.652Z,7.03
2023-04-03T11:29:02.483Z,7.15
2023-04-03T11:31:29.996Z,7.00
2023-04-03T11:34:09.794Z,7.15
2023-04-03T11:36:43.141Z,7.20
2023-04-03T11:39:24.336Z,7.60
2023-04-03T11:41:57.549Z,7.55
2023-04-03T11:44:37.388Z,6.70
2023-04-03T11:47:06.826Z,6.60
2023-04-03T11:49:53.552Z,7.35
2023-04-03T11:52:42.295Z,6.63
2023-04-03T11:55:23.165Z,7.30
2023-04-03T11:58:00.016Z,6.65
2023-04-03T12:00:47.412Z,6.53
2023-04-03T12:03:27.233Z,7.85
2023-04-03T12:05:59.049Z,6.95
2023-04-03T12:08:28.128Z,5.97
2023-04-03T12:11:21.973Z,5.50
2023-04-03T12:13:58.289Z,5.57
2023-04-03T12:16:28.761Z,6.05
2023-04-03T12:19:04.648Z,5.07
2023-04-03T12:21:38.141Z,5.43
2023-04-03T12:24:05.719Z,5.20
2023-04-03T12:26:46.000Z,5.30
2023-04-03T12:29:22.335Z,5.05
2023-04-03T12:32:08.373Z,11.77
2023-04-03T12:34:56.111Z,4.80
2023-04-03T12:37:23.505Z,15.40
2023-04-03T12:40:09.631Z,4.78
2023-04-03T12:42:37.171Z,4.78
2023-04-03T12:45:12.864Z,4.43
2023-04-03T12:47:43.314Z,7.80
2023-04-03T12:50:31.287Z,4.28
2023-04-03T12:52:58.809Z,3.75
2023-04-03T12:55:26.382Z,3.80
2023-04-03T12:57:54.150Z,3.70
2023-04-03T13:00:30.029Z,4.15
2023-04-03T13:02:57.929Z,3.80
2023-04-03T13:05:25.823Z,4.55
2023-04-03T13:07:59.620Z,4.95
2023-04-03T13:10:27.350Z,5.15
2023-04-03T13:12:56.942Z,6.72
2023-04-03T13:15:27.304Z,7.00
2023-04-03T13:17:55.402Z,7.82
2023-04-03T13:20:27.581Z,8.02
2023-04-03T13:22:54.994Z,7.38
2023-04-03T13:25:23.223Z,9.10
2023-04-03T13:27:53.900Z,7.72
2023-04-03T13:30:27.515Z,8.35
2023-04-03T13:32:55.637Z,8.63
2023-04-03T13:35:28.870Z,9.52
2023-04-03T13:38:01.644Z,6.72
2023-04-03T13:40:32.522Z,8.02
2023-04-03T13:43:19.206Z,8.07
2023-04-03T13:46:08.005Z,7.15
2023-04-03T13:48:43.099Z,7.57
2023-04-03T13:53:44.546Z,11.73
2023-04-03T13:56:19.646Z,8.37
2023-04-03T13:59:01.868Z,13.68
2023-04-03T14:01:35.842Z,12.52
2023-04-03T14:04:11.629Z,11.98
2023-04-03T14:06:39.105Z,11.98
2023-04-03T14:09:06.687Z,10.07
2023-04-03T14:11:35.782Z,11.15
2023-04-03T14:14:05.823Z,9.65
2023-04-03T14:16:37.100Z,10.73
2023-04-03T14:19:04.810Z,9.88
2023-04-03T14:21:33.450Z,8.40
2023-04-03T14:24:01.041Z,9.85
2023-04-03T14:26:31.446Z,10.30
2023-04-03T14:28:58.874Z,10.65
2023-04-03T14:31:26.690Z,10.63
2023-04-03T14:33:54.231Z,9.70
2023-04-03T14:36:23.339Z,9.00
2023-04-03T14:38:51.579Z,12.43
2023-04-03T14:41:20.806Z,10.35
2023-04-03T14:43:48.533Z,10.95
2023-04-03T14:46:17.954Z,9.50
2023-04-03T14:48:46.385Z,10.93
2023-04-03T14:51:14.383Z,8.80
2023-04-03T14:53:42.950Z,8.77
2023-04-03T14:56:16.720Z,8.63
2023-04-03T14:58:44.864Z,8.52
2023-04-03T15:01:15.105Z,7.32
2023-04-03T15:03:42.895Z,8.52
2023-04-03T15:06:13.775Z,7.43
2023-04-03T15:08:42.896Z,7.22
2023-04-03T15:11:11.471Z,6.97
2023-04-03T15:13:39.356Z,6.95
2023-04-03T15:16:08.030Z,6.20
2023-04-03T15:18:39.102Z,6.50
2023-04-03T15:21:07.275Z,7.10
2023-04-03T15:23:34.716Z,18.98
2023-04-03T15:26:02.307Z,26.08
2023-04-03T15:28:32.172Z,10.10
2023-04-03T15:30:59.740Z,10.35
2023-04-03T15:33:27.373Z,7.35
2023-04-03T15:36:02.701Z,6.75
2023-04-03T15:38:35.393Z,7.85
2023-04-03T15:41:02.908Z,8.52
2023-04-03T15:43:30.315Z,7.95
2023-04-03T15:45:58.800Z,7.28
2023-04-03T15:48:26.356Z,7.03
2023-04-03T15:50:53.756Z,7.00
2023-04-03T15:53:21.554Z,6.25
2023-04-03T15:55:49.032Z,7.70
2023-04-03T15:58:16.721Z,7.72
2023-04-03T16:00:44.308Z,7.50
2023-04-03T16:03:13.760Z,8.30
2023-04-03T16:05:41.793Z,8.82
2023-04-03T16:08:09.659Z,9.02
2023-04-03T16:10:38.223Z,16.38
2023-04-03T16:13:06.344Z,14.02
2023-04-03T16:15:34.935Z,9.25
2023-04-03T16:18:02.836Z,8.10
2023-04-03T16:20:30.464Z,8.80
2023-04-03T16:22:59.169Z,8.48
2023-04-03T16:25:26.593Z,9.25
2023-04-03T16:27:54.242Z,9.38
2023-04-03T16:30:22.010Z,9.10
2023-04-03T16:32:49.560Z,9.25
2023-04-03T16:35:17.167Z,9.98
2023-04-03T16:37:44.709Z,11.02
2023-04-03T16:40:13.458Z,14.25
2023-04-03T16:42:41.268Z,9.77
2023-04-03T16:45:09.164Z,9.20
2023-04-03T16:47:36.686Z,8.65
2023-04-03T16:50:04.361Z,9.85
2023-04-03T16:52:32.030Z,9.35
2023-04-03T16:54:59.924Z,9.43
2023-04-03T16:57:27.854Z,9.45
2023-04-03T16:59:55.641Z,9.95
2023-04-03T17:02:27.713Z,10.43
2023-04-03T17:04:55.699Z,10.73
2023-04-03T17:07:24.173Z,9.32
2023-04-03T17:09:52.532Z,10.23
2023-04-03T17:12:20.022Z,9.70
2023-04-03T17:14:50.522Z,11.65
2023-04-03T17:17:20.278Z,11.30
2023-04-03T17:19:47.804Z,11.80
2023-04-03T17:22:17.575Z,11.80
2023-04-03T17:24:45.589Z,13.57
2023-04-03T17:27:12.976Z,11.20
2023-04-03T17:29:40.492Z,11.07
2023-04-03T17:32:08.007Z,10.93
2023-04-03T17:34:36.858Z,11.82
2023-04-03T17:37:04.707Z,12.27
2023-04-03T17:39:32.742Z,12.27
2023-04-03T17:42:01.131Z,11.73
2023-04-03T17:44:28.717Z,11.60
2023-04-03T17:46:56.276Z,12.48
2023-04-03T17:49:23.916Z,14.27
2023-04-03T17:51:51.339Z,12.32
2023-04-03T17:54:18.861Z,11.20
2023-04-03T17:56:48.274Z,10.45
2023-04-03T17:59:16.864Z,10.00
2023-04-03T18:01:46.152Z,9.98
2023-04-03T18:04:14.248Z,12.50
2023-04-03T18:06:49.291Z,11.23
2023-04-03T18:09:23.977Z,14.52
2023-04-03T18:11:51.992Z,13.10
2023-04-03T18:14:24.087Z,12.75
2023-04-03T18:16:52.809Z,11.35
2023-04-03T18:19:23.726Z,13.98
2023-04-03T18:21:57.100Z,12.20
2023-04-03T18:24:25.883Z,14.98
2023-04-03T18:26:56.689Z,16.48
2023-04-03T18:29:24.406Z,14.95
2023-04-03T18:31:53.844Z,18.25
2023-04-03T18:34:21.362Z,19.65
2023-04-03T18:36:49.223Z,15.23
2023-04-03T18:39:16.689Z,19.65
2023-04-03T18:41:44.416Z,20.80
2023-04-03T18:44:13.698Z,18.85
2023-04-03T18:46:41.118Z,26.40
2023-04-03T18:49:09.291Z,23.75
2023-04-03T18:51:39.288Z,20.60
2023-04-03T18:54:09.535Z,20.98
2023-04-03T18:56:37.501Z,22.50
2023-04-03T18:59:05.312Z,22.55
2023-04-03T19:01:33.338Z,22.90
2023-04-03T19:04:01.186Z,24.02
2023-04-03T19:06:28.693Z,20.40
2023-04-03T19:08:56.380Z,21.75
2023-04-03T19:11:23.908Z,27.35
2023-04-03T19:14:10.740Z,24.13
2023-04-03T19:16:39.520Z,24.20
2023-04-03T19:19:06.926Z,25.95
2023-04-03T19:21:38.516Z,24.67
2023-04-03T19:24:06.158Z,26.30
2023-04-03T19:26:33.591Z,24.00
2023-04-03T19:29:01.454Z,24.13
2023-04-03T19:34:02.632Z,25.90
2023-04-03T19:36:30.568Z,23.55
2023-04-03T19:38:58.144Z,24.92
2023-04-03T19:41:27.370Z,27.30
2023-04-03T19:43:56.060Z,27.70
2023-04-03T19:46:24.100Z,25.35
2023-04-03T19:48:52.245Z,28.20
2023-04-03T19:51:19.900Z,27.33
2023-04-03T19:53:48.541Z,29.67
2023-04-03T19:56:16.998Z,29.80
2023-04-03T19:58:44.686Z,24.95
2023-04-03T20:01:12.210Z,22.90
2023-04-03T20:03:40.031Z,21.88
2023-04-03T20:06:07.492Z,22.50
2023-04-03T20:08:37.078Z,17.85
2023-04-03T20:11:05.950Z,24.90
2023-04-03T20:13:33.444Z,22.35
2023-04-03T20:16:05.076Z,26.77
2023-04-03T20:18:32.706Z,24.80
2023-04-03T20:21:01.790Z,28.30
2023-04-03T20:23:29.810Z,23.45
2023-04-03T20:26:09.425Z,23.98
2023-04-03T20:28:39.305Z,20.42
2023-04-03T20:31:07.984Z,0.73
2023-04-03T20:33:37.124Z,18.73
2023-04-03T20:36:04.772Z,14.07
2023-04-03T20:38:32.282Z,14.02
2023-04-03T20:41:00.280Z,0.55
2023-04-03T20:43:28.396Z,0.70
2023-04-03T20:45:55.880Z,13.02
2023-04-03T20:48:23.706Z,16.67
2023-04-03T20:50:51.912Z,16.67
2023-04-03T20:53:20.767Z,21.47
2023-04-03T20:55:59.835Z,23.25
2023-04-03T20:58:30.318Z,22.08
2023-04-03T21:00:58.006Z,20.13
2023-04-03T21:03:26.645Z,24.10
2023-04-03T21:06:00.528Z,23.58
2023-04-03T21:08:47.935Z,19.70
2023-04-03T21:11:34.188Z,22.52
2023-04-03T21:14:20.772Z,18.88
2023-04-03T21:16:48.189Z,21.05
2023-04-03T21:19:16.327Z,21.15
2023-04-03T21:21:45.734Z,3.10
2023-04-03T21:24:14.106Z,1.10
2023-04-03T21:26:41.782Z,0.00
2023-04-03T21:29:09.618Z,0.00
2023-04-03T21:31:57.009Z,0.10
2023-04-03T21:34:28.599Z,0.90
2023-04-03T21:36:57.296Z,0.45
2023-04-03T21:39:24.818Z,0.28
2023-04-03T21:41:52.671Z,0.50
2023-04-03T21:44:20.554Z,0.28
2023-04-03T21:46:48.551Z,0.93
2023-04-03T21:49:16.314Z,0.47
2023-04-03T21:51:43.738Z,0.15
2023-04-03T21:54:11.181Z,16.17
2023-04-03T21:56:39.310Z,13.68
2023-04-03T21:59:06.864Z,15.43
2023-04-03T22:01:34.497Z,16.30
2023-04-03T22:04:02.932Z,19.20
2023-04-03T22:06:30.633Z,0.10
2023-04-03T22:08:58.313Z,1.42
2023-04-03T22:11:27.193Z,0.65
2023-04-03T22:13:55.540Z,14.25
2023-04-03T22:16:23.991Z,15.23
2023-04-03T22:18:52.934Z,15.48
2023-04-03T22:21:21.439Z,18.02
2023-04-03T22:23:48.847Z,16.77
2023-04-03T22:26:16.505Z,17.17
2023-04-03T22:28:45.259Z,19.30
2023-04-03T22:31:16.436Z,17.10
2023-04-03T22:33:45.527Z,17.85
2023-04-03T22:36:13.777Z,18.55
2023-04-03T22:38:45.004Z,18.05
2023-04-03T22:41:12.677Z,17.48
2023-04-03T22:43:40.507Z,18.42
2023-04-03T22:46:09.271Z,17.35
2023-04-03T22:48:37.184Z,19.33
2023-04-03T22:51:07.574Z,14.50
2023-04-03T22:53:35.679Z,15.07
2023-04-03T22:56:03.742Z,13.90
2023-04-03T23:01:10.265Z,17.05
2023-04-03T23:03:38.348Z,20.77
2023-04-03T23:06:06.265Z,14.27
2023-04-03T23:08:35.150Z,20.10
2023-04-03T23:13:30.483Z,18.45
2023-04-03T23:15:58.828Z,14.60
2023-04-03T23:18:27.062Z,0.57
2023-04-03T23:20:55.198Z,13.30
2023-04-03T23:23:23.753Z,16.80
2023-04-03T23:25:54.401Z,13.98
2023-04-03T23:28:21.932Z,14.95
2023-04-03T23:30:51.054Z,13.98
2023-04-03T23:33:18.523Z,0.00
2023-04-03T23:35:48.924Z,0.05
2023-04-03T23:38:16.645Z,0.00
2023-04-03T23:40:47.149Z,0.00
2023-04-03T23:45:42.407Z,14.48
2023-04-03T23:48:09.997Z,13.60
2023-04-03T23:50:37.636Z,15.27
2023-04-03T23:53:05.495Z,14.68
2023-04-03T23:55:33.153Z,13.03
2023-04-03T23:58:00.610Z,11.60
